createdAt,value
2018-09-06T00:00:35.264Z,8.50
2018-09-06T00:03:11.425Z,9.35
2018-09-06T00:05:48.100Z,8.40
2018-09-06T00:08:24.230Z,8.85
2018-09-06T00:11:00.397Z,8.23
2018-09-06T00:13:36.425Z,9.47
2018-09-06T00:16:12.862Z,8.87
2018-09-06T00:18:48.941Z,8.68
2018-09-06T00:21:25.273Z,7.78
2018-09-06T00:24:01.305Z,8.25
2018-09-06T00:26:37.276Z,8.67
2018-09-06T00:29:13.298Z,7.30
2018-09-06T00:31:49.281Z,7.80
2018-09-06T00:34:25.284Z,7.13
2018-09-06T00:37:02.009Z,7.27
2018-09-06T00:39:38.120Z,7.33
2018-09-06T00:42:14.292Z,6.67
2018-09-06T00:44:50.313Z,7.40
2018-09-06T00:47:26.106Z,7.00
2018-09-06T00:50:02.227Z,6.83
2018-09-06T00:52:38.112Z,6.53
2018-09-06T00:55:14.367Z,6.50
2018-09-06T00:57:51.390Z,7.15
2018-09-06T01:00:27.391Z,7.37
2018-09-06T01:03:03.318Z,6.80
2018-09-06T01:05:39.112Z,7.40
2018-09-06T01:08:16.053Z,7.45
2018-09-06T01:10:52.085Z,7.15
2018-09-06T01:13:28.005Z,6.83
2018-09-06T01:16:04.145Z,7.22
2018-09-06T01:18:40.321Z,6.90
2018-09-06T01:21:16.321Z,7.10
2018-09-06T01:25:46.538Z,7.30
2018-09-06T01:28:23.973Z,6.90
2018-09-06T01:31:00.924Z,6.62
2018-09-06T01:33:37.314Z,6.53
2018-09-06T01:36:16.278Z,6.60
2018-09-06T01:38:52.118Z,6.50
2018-09-06T01:41:28.247Z,6.17
2018-09-06T01:44:04.009Z,6.40
2018-09-06T01:48:28.533Z,6.22
2018-09-06T01:51:04.851Z,6.00
2018-09-06T01:53:41.681Z,6.42
2018-09-06T01:56:18.329Z,6.20
2018-09-06T01:58:54.131Z,5.90
2018-09-06T02:01:31.133Z,6.47
2018-09-06T02:04:07.345Z,6.03
2018-09-06T02:06:43.364Z,6.13
2018-09-06T02:09:19.485Z,7.07
2018-09-06T02:11:55.933Z,9.10
2018-09-06T02:14:32.042Z,7.90
2018-09-06T02:17:08.140Z,8.83
2018-09-06T02:19:45.123Z,7.83
2018-09-06T02:22:21.114Z,7.85
2018-09-06T02:24:57.427Z,8.97
2018-09-06T02:27:33.609Z,7.37
2018-09-06T02:30:10.063Z,7.87
2018-09-06T02:32:46.731Z,8.10
2018-09-06T02:35:23.127Z,8.15
2018-09-06T02:37:59.266Z,7.00
2018-09-06T02:40:42.490Z,7.40
2018-09-06T02:43:18.945Z,11.15
2018-09-06T02:45:55.324Z,10.80
2018-09-06T02:48:35.319Z,13.38
2018-09-06T02:51:15.531Z,10.60
2018-09-06T02:53:51.224Z,11.90
2018-09-06T02:56:27.333Z,12.53
2018-09-06T02:59:03.158Z,11.90
2018-09-06T03:01:39.172Z,9.65
2018-09-06T03:04:15.434Z,8.63
2018-09-06T03:06:51.493Z,9.68
2018-09-06T03:12:07.715Z,8.77
2018-09-06T03:14:44.279Z,9.90
2018-09-06T03:17:20.542Z,10.00
2018-09-06T03:19:56.827Z,10.33
2018-09-06T03:22:33.162Z,8.60
2018-09-06T03:25:09.522Z,10.93
2018-09-06T03:27:45.534Z,7.40
2018-09-06T03:30:21.909Z,8.55
2018-09-06T03:32:58.066Z,8.70
2018-09-06T03:35:34.124Z,9.20
2018-09-06T03:38:10.310Z,8.18
2018-09-06T03:40:47.743Z,7.50
2018-09-06T03:43:24.338Z,7.80
2018-09-06T03:46:00.379Z,7.60
2018-09-06T03:48:36.385Z,8.08
2018-09-06T03:51:12.525Z,8.27
2018-09-06T03:53:48.362Z,9.93
2018-09-06T03:56:25.159Z,8.10
2018-09-06T03:59:02.149Z,9.13
2018-09-06T04:01:38.366Z,11.00
2018-09-06T04:04:14.541Z,10.13
2018-09-06T04:06:50.407Z,7.03
2018-09-06T04:09:26.418Z,8.47
2018-09-06T04:12:02.595Z,8.05
2018-09-06T04:14:38.642Z,8.87
2018-09-06T04:17:15.184Z,8.55
2018-09-06T04:19:51.186Z,9.17
2018-09-06T04:22:27.209Z,7.20
2018-09-06T04:25:03.184Z,6.40
2018-09-06T04:27:39.180Z,7.60
2018-09-06T04:30:15.186Z,5.83
2018-09-06T04:32:51.210Z,5.95
2018-09-06T04:37:17.172Z,6.58
2018-09-06T04:39:53.517Z,6.47
2018-09-06T04:42:29.562Z,7.22
2018-09-06T04:45:06.383Z,6.67
2018-09-06T04:47:43.107Z,7.42
2018-09-06T04:50:19.194Z,6.37
2018-09-06T04:52:55.520Z,5.53
2018-09-06T04:55:31.617Z,6.60
2018-09-06T04:58:07.544Z,7.20
2018-09-06T05:00:43.846Z,6.75
2018-09-06T05:03:20.180Z,5.92
2018-09-06T05:05:56.009Z,6.17
2018-09-06T05:08:32.199Z,6.87
2018-09-06T05:11:08.376Z,6.25
2018-09-06T05:13:44.444Z,5.90
2018-09-06T05:16:20.409Z,6.50
2018-09-06T05:18:56.425Z,5.95
2018-09-06T05:21:32.598Z,5.65
2018-09-06T05:24:08.850Z,6.07
2018-09-06T05:26:45.173Z,6.15
2018-09-06T05:29:21.393Z,6.50
2018-09-06T05:31:57.497Z,6.00
2018-09-06T05:34:33.562Z,6.55
2018-09-06T05:37:10.397Z,5.90
2018-09-06T05:39:46.574Z,5.80
2018-09-06T05:42:23.185Z,7.55
2018-09-06T05:44:59.334Z,7.25
2018-09-06T05:47:35.550Z,5.87
2018-09-06T05:50:11.969Z,6.12
2018-09-06T05:52:47.809Z,6.27
2018-09-06T05:55:24.189Z,6.20
2018-09-06T05:58:00.247Z,5.93
2018-09-06T06:00:40.037Z,6.20
2018-09-06T06:03:16.447Z,6.20
2018-09-06T06:05:52.601Z,6.78
2018-09-06T06:08:43.410Z,6.27
2018-09-06T06:11:20.219Z,7.23
2018-09-06T06:13:56.424Z,5.80
2018-09-06T06:16:32.399Z,5.90
2018-09-06T06:19:08.421Z,10.30
2018-09-06T06:21:44.442Z,9.50
2018-09-06T06:24:20.456Z,8.33
2018-09-06T06:26:56.419Z,7.87
2018-09-06T06:29:32.432Z,9.30
2018-09-06T06:32:08.489Z,5.00
2018-09-06T06:34:44.845Z,7.50
2018-09-06T06:37:20.839Z,7.17
2018-09-06T06:39:57.278Z,6.30
2018-09-06T06:42:33.431Z,6.50
2018-09-06T06:45:09.242Z,11.13
2018-09-06T06:47:45.415Z,8.17
2018-09-06T06:50:21.427Z,12.35
2018-09-06T06:52:57.413Z,10.37
2018-09-06T06:55:33.530Z,8.10
2018-09-06T06:58:09.518Z,9.13
2018-09-06T07:00:46.195Z,7.23
2018-09-06T07:03:22.172Z,6.28
2018-09-06T07:05:58.094Z,6.40
2018-09-06T07:08:34.139Z,6.37
2018-09-06T07:11:10.181Z,6.40
2018-09-06T07:13:46.181Z,7.87
2018-09-06T07:16:22.258Z,8.33
2018-09-06T07:18:58.426Z,9.28
2018-09-06T07:21:35.575Z,8.90
2018-09-06T07:24:11.949Z,6.72
2018-09-06T07:26:48.049Z,7.10
2018-09-06T07:29:25.049Z,6.55
2018-09-06T07:32:01.886Z,6.85
2018-09-06T07:34:38.225Z,6.23
2018-09-06T07:37:14.638Z,7.60
2018-09-06T07:39:50.951Z,5.83
2018-09-06T07:42:27.264Z,5.70
2018-09-06T07:45:03.290Z,5.50
2018-09-06T07:47:39.255Z,5.30
2018-09-06T07:50:15.283Z,4.97
2018-09-06T07:52:52.442Z,6.70
2018-09-06T07:55:28.466Z,4.90
2018-09-06T07:58:04.666Z,5.60
2018-09-06T08:00:43.651Z,4.95
2018-09-06T08:03:20.604Z,4.90
2018-09-06T08:05:57.434Z,5.25
2018-09-06T08:08:33.448Z,4.20
2018-09-06T08:11:09.995Z,4.30
2018-09-06T08:13:46.417Z,5.22
2018-09-06T08:16:23.050Z,4.87
2018-09-06T08:19:00.508Z,6.00
2018-09-06T08:21:36.825Z,4.20
2018-09-06T08:24:13.081Z,3.40
2018-09-06T08:26:49.449Z,3.00
2018-09-06T08:29:25.743Z,4.00
2018-09-06T08:32:02.483Z,4.28
2018-09-06T08:34:38.489Z,3.60
2018-09-06T08:37:14.441Z,4.10
2018-09-06T08:39:50.637Z,3.90
2018-09-06T08:42:26.894Z,4.15
2018-09-06T08:45:03.332Z,6.05
2018-09-06T08:47:40.267Z,4.80
2018-09-06T08:50:16.401Z,5.00
2018-09-06T08:52:52.823Z,5.45
2018-09-06T08:55:28.763Z,4.75
2018-09-06T08:58:05.847Z,3.93
2018-09-06T09:00:44.484Z,5.27
2018-09-06T09:03:20.419Z,3.50
2018-09-06T09:05:59.705Z,4.30
2018-09-06T09:08:35.654Z,5.05
2018-09-06T09:11:11.876Z,5.57
2018-09-06T09:13:48.273Z,4.62
2018-09-06T09:16:24.299Z,5.10
2018-09-06T09:19:00.521Z,5.03
2018-09-06T09:21:36.915Z,5.15
2018-09-06T09:24:13.074Z,5.28
2018-09-06T09:26:50.054Z,6.08
2018-09-06T09:29:26.289Z,4.53
2018-09-06T09:32:02.621Z,4.92
2018-09-06T09:34:38.316Z,5.63
2018-09-06T09:37:14.689Z,6.97
2018-09-06T09:39:51.652Z,6.27
2018-09-06T09:42:28.058Z,8.75
2018-09-06T09:45:04.446Z,6.78
2018-09-06T09:47:40.634Z,5.60
2018-09-06T09:52:52.322Z,5.20
2018-09-06T09:55:28.782Z,7.47
2018-09-06T09:58:05.332Z,8.05
2018-09-06T10:00:44.422Z,6.58
2018-09-06T10:03:24.514Z,6.07
2018-09-06T10:06:06.320Z,6.42
2018-09-06T10:08:46.566Z,8.60
2018-09-06T10:11:22.482Z,5.42
2018-09-06T10:13:58.535Z,6.27
2018-09-06T10:16:34.673Z,5.67
2018-09-06T10:19:11.645Z,5.28
2018-09-06T10:21:48.176Z,6.30
2018-09-06T10:24:24.335Z,6.25
2018-09-06T10:27:00.498Z,5.20
2018-09-06T10:29:36.655Z,5.80
2018-09-06T10:32:12.549Z,6.40
2018-09-06T10:34:48.899Z,5.07
2018-09-06T10:37:25.050Z,5.95
2018-09-06T10:40:01.180Z,5.93
2018-09-06T10:42:38.275Z,6.70
2018-09-06T10:45:14.494Z,5.12
2018-09-06T10:47:50.586Z,4.92
2018-09-06T10:50:26.550Z,6.13
2018-09-06T10:53:02.710Z,5.75
2018-09-06T10:55:39.322Z,6.30
2018-09-06T10:58:15.485Z,5.90
2018-09-06T11:00:52.649Z,6.70
2018-09-06T11:03:29.210Z,5.80
2018-09-06T11:06:05.653Z,5.47
2018-09-06T11:08:42.157Z,6.17
2018-09-06T11:11:18.323Z,8.53
2018-09-06T11:13:54.561Z,5.37
2018-09-06T11:16:31.089Z,5.83
2018-09-06T11:19:07.178Z,6.50
2018-09-06T11:21:43.772Z,7.00
2018-09-06T11:24:20.334Z,6.50
2018-09-06T11:26:57.329Z,6.55
2018-09-06T11:29:33.638Z,5.37
2018-09-06T11:32:10.062Z,8.33
2018-09-06T11:34:46.283Z,5.62
2018-09-06T11:37:22.453Z,6.50
2018-09-06T11:39:58.743Z,6.08
2018-09-06T11:42:35.343Z,6.40
2018-09-06T11:45:12.530Z,6.55
2018-09-06T11:47:48.801Z,6.80
2018-09-06T11:50:25.181Z,8.10
2018-09-06T11:53:01.519Z,8.00
2018-09-06T11:55:38.355Z,6.47
2018-09-06T11:58:14.245Z,9.98
2018-09-06T12:00:50.688Z,6.45
2018-09-06T12:03:27.006Z,7.40
2018-09-06T12:06:03.104Z,6.07
2018-09-06T12:08:39.342Z,8.40
2018-09-06T12:11:15.516Z,8.25
2018-09-06T12:13:51.714Z,6.97
2018-09-06T12:16:28.485Z,7.65
2018-09-06T12:19:04.748Z,6.50
2018-09-06T12:21:40.830Z,5.80
2018-09-06T12:24:16.710Z,10.65
2018-09-06T12:26:54.353Z,9.55
2018-09-06T12:29:30.582Z,9.85
2018-09-06T12:32:06.598Z,9.77
2018-09-06T12:34:43.216Z,10.43
2018-09-06T12:37:19.197Z,12.30
2018-09-06T12:39:55.214Z,7.60
2018-09-06T12:42:31.711Z,7.03
2018-09-06T12:45:08.262Z,9.55
2018-09-06T12:47:46.809Z,10.25
2018-09-06T12:50:23.269Z,8.98
2018-09-06T12:52:59.479Z,10.72
2018-09-06T12:55:36.004Z,7.85
2018-09-06T12:58:12.253Z,6.58
2018-09-06T13:00:48.718Z,7.53
2018-09-06T13:03:25.333Z,9.47
2018-09-06T13:06:02.665Z,7.87
2018-09-06T13:08:39.536Z,9.17
2018-09-06T13:11:15.954Z,8.90
2018-09-06T13:13:52.313Z,9.88
2018-09-06T13:16:28.524Z,8.30
2018-09-06T13:19:04.769Z,8.30
2018-09-06T13:21:40.872Z,8.90
2018-09-06T13:24:18.345Z,6.60
2018-09-06T13:26:54.401Z,7.60
2018-09-06T13:29:30.289Z,10.83
2018-09-06T13:32:06.552Z,8.75
2018-09-06T13:34:42.721Z,7.10
2018-09-06T13:37:18.717Z,9.30
2018-09-06T13:39:55.134Z,8.08
2018-09-06T13:42:31.185Z,8.50
2018-09-06T13:45:07.581Z,7.40
2018-09-06T13:47:44.018Z,8.50
2018-09-06T13:50:20.829Z,8.63
2018-09-06T13:52:57.349Z,8.15
2018-09-06T13:55:33.568Z,9.15
2018-09-06T13:58:10.062Z,10.00
2018-09-06T14:00:46.619Z,8.70
2018-09-06T14:03:22.578Z,7.50
2018-09-06T14:05:58.612Z,10.55
2018-09-06T14:08:35.507Z,8.18
2018-09-06T14:11:12.549Z,10.70
2018-09-06T14:13:49.590Z,6.62
2018-09-06T14:16:25.395Z,7.80
2018-09-06T14:19:01.760Z,10.43
2018-09-06T14:21:38.232Z,7.67
2018-09-06T14:24:14.623Z,8.30
2018-09-06T14:26:50.806Z,8.47
2018-09-06T14:29:26.743Z,8.70
2018-09-06T14:32:02.596Z,9.67
2018-09-06T14:34:40.348Z,8.70
2018-09-06T14:37:16.772Z,9.03
2018-09-06T14:39:52.659Z,10.23
2018-09-06T14:42:28.626Z,6.60
2018-09-06T14:45:04.884Z,9.70
2018-09-06T14:47:41.396Z,7.62
2018-09-06T14:50:17.515Z,8.58
2018-09-06T14:52:53.585Z,5.85
2018-09-06T14:55:29.519Z,7.80
2018-09-06T14:58:05.737Z,10.70
2018-09-06T15:00:42.065Z,8.38
2018-09-06T15:03:19.983Z,7.60
2018-09-06T15:05:56.603Z,7.67
2018-09-06T15:08:32.403Z,7.57
2018-09-06T15:11:08.401Z,7.30
2018-09-06T15:13:44.441Z,6.62
2018-09-06T15:16:20.808Z,6.20
2018-09-06T15:18:57.391Z,8.18
2018-09-06T15:21:33.121Z,7.20
2018-09-06T15:24:20.793Z,10.53
2018-09-06T15:26:58.316Z,7.67
2018-09-06T15:29:36.954Z,8.33
2018-09-06T15:32:13.771Z,8.20
2018-09-06T15:34:49.828Z,7.40
2018-09-06T15:37:25.778Z,9.13
2018-09-06T15:40:02.381Z,8.88
2018-09-06T15:42:38.762Z,6.72
2018-09-06T15:45:14.637Z,8.27
2018-09-06T15:47:51.002Z,9.13
2018-09-06T15:50:27.177Z,9.05
2018-09-06T15:53:03.148Z,7.60
2018-09-06T15:55:39.611Z,7.97
2018-09-06T15:58:15.699Z,10.20
2018-09-06T16:00:52.061Z,8.95
2018-09-06T16:03:28.578Z,8.58
2018-09-06T16:06:05.322Z,7.80
2018-09-06T16:08:42.655Z,7.85
2018-09-06T16:11:18.818Z,5.60
2018-09-06T16:13:56.074Z,8.83
2018-09-06T16:16:33.140Z,7.30
2018-09-06T16:19:10.399Z,6.22
2018-09-06T16:21:46.797Z,8.33
2018-09-06T16:24:23.341Z,7.03
2018-09-06T16:26:59.833Z,9.20
2018-09-06T16:29:35.701Z,5.20
2018-09-06T16:32:11.757Z,6.60
2018-09-06T16:34:48.441Z,3.93
2018-09-06T16:37:24.664Z,4.90
2018-09-06T16:40:01.219Z,6.27
2018-09-06T16:42:37.272Z,5.00
2018-09-06T16:45:13.870Z,4.97
2018-09-06T16:47:50.421Z,4.90
2018-09-06T16:50:26.613Z,3.92
2018-09-06T16:53:02.837Z,6.30
2018-09-06T16:55:39.201Z,4.80
2018-09-06T16:58:15.745Z,8.70
2018-09-06T17:00:52.393Z,9.58
2018-09-06T17:03:28.561Z,8.03
2018-09-06T17:06:04.434Z,10.70
2018-09-06T17:08:40.437Z,11.43
2018-09-06T17:11:16.472Z,10.25
2018-09-06T17:13:52.487Z,10.53
2018-09-06T17:16:28.598Z,11.60
2018-09-06T17:19:04.634Z,9.20
2018-09-06T17:21:40.574Z,12.75
2018-09-06T17:24:16.831Z,10.78
2018-09-06T17:26:52.694Z,9.53
2018-09-06T17:29:28.997Z,9.00
2018-09-06T17:32:05.617Z,8.50
2018-09-06T17:34:41.625Z,11.90
2018-09-06T17:37:17.782Z,8.55
2018-09-06T17:39:55.365Z,7.10
2018-09-06T17:42:33.945Z,7.25
2018-09-06T17:45:11.441Z,8.53
2018-09-06T17:47:47.604Z,7.40
2018-09-06T17:50:23.645Z,8.13
2018-09-06T17:53:00.082Z,5.42
2018-09-06T17:55:36.631Z,6.90
2018-09-06T17:58:12.817Z,7.03
2018-09-06T18:01:55.265Z,5.33
2018-09-06T18:04:32.267Z,16.42
2018-09-06T18:07:08.438Z,9.00
2018-09-06T18:09:44.693Z,11.08
2018-09-06T18:12:22.201Z,11.93
2018-09-06T18:14:58.414Z,10.88
2018-09-06T18:17:34.716Z,10.23
2018-09-06T18:20:11.881Z,20.12
2018-09-06T18:22:48.340Z,42.13
2018-09-06T18:25:24.855Z,27.58
2018-09-06T18:28:01.641Z,18.98
2018-09-06T18:30:37.692Z,17.25
2018-09-06T18:33:13.675Z,16.87
2018-09-06T18:35:50.462Z,17.17
2018-09-06T18:38:26.734Z,15.30
2018-09-06T18:41:03.838Z,14.70
2018-09-06T18:43:40.076Z,12.98
2018-09-06T18:46:17.593Z,15.63
2018-09-06T18:48:53.657Z,14.40
2018-09-06T18:51:30.451Z,12.80
2018-09-06T18:54:06.680Z,12.43
2018-09-06T18:56:43.642Z,13.78
2018-09-06T18:59:20.257Z,14.00
2018-09-06T19:01:56.653Z,15.85
2018-09-06T19:04:33.656Z,12.98
2018-09-06T19:07:10.718Z,12.03
2018-09-06T19:09:46.811Z,12.90
2018-09-06T19:12:22.921Z,12.87
2018-09-06T19:14:58.699Z,12.67
2018-09-06T19:17:35.484Z,12.97
2018-09-06T19:20:11.608Z,12.18
2018-09-06T19:22:47.485Z,14.50
2018-09-06T19:25:23.689Z,12.63
2018-09-06T19:28:00.484Z,11.60
2018-09-06T19:30:37.405Z,16.40
2018-09-06T19:33:13.486Z,12.07
2018-09-06T19:35:49.937Z,14.93
2018-09-06T19:38:26.498Z,14.20
2018-09-06T19:41:02.824Z,13.72
2018-09-06T19:43:41.098Z,14.70
2018-09-06T19:46:17.496Z,16.27
2018-09-06T19:48:55.269Z,15.80
2018-09-06T19:51:31.672Z,16.02
2018-09-06T19:54:07.930Z,12.78
2018-09-06T19:56:44.221Z,15.23
2018-09-06T19:59:20.355Z,15.72
2018-09-06T20:01:56.762Z,14.35
2018-09-06T20:04:32.737Z,13.23
2018-09-06T20:07:09.220Z,17.40
2018-09-06T20:09:46.659Z,13.25
2018-09-06T20:12:22.623Z,12.20
2018-09-06T20:15:02.491Z,13.00
2018-09-06T20:17:38.718Z,13.15
2018-09-06T20:20:14.913Z,16.00
2018-09-06T20:22:51.180Z,13.83
2018-09-06T20:25:27.244Z,11.00
2018-09-06T20:28:03.583Z,13.65
2018-09-06T20:30:40.343Z,16.35
2018-09-06T20:33:16.252Z,11.93
2018-09-06T20:35:52.646Z,11.48
2018-09-06T20:38:28.514Z,12.43
2018-09-06T20:41:04.713Z,11.80
2018-09-06T20:43:41.121Z,12.40
2018-09-06T20:46:17.519Z,12.45
2018-09-06T20:48:54.731Z,12.40
2018-09-06T20:51:30.886Z,12.90
2018-09-06T20:54:07.214Z,12.80
2018-09-06T20:56:43.508Z,11.90
2018-09-06T20:59:19.803Z,14.13
2018-09-06T21:01:56.764Z,11.80
2018-09-06T21:04:33.235Z,15.70
2018-09-06T21:07:09.526Z,13.72
2018-09-06T21:09:45.557Z,15.43
2018-09-06T21:12:22.272Z,14.43
2018-09-06T21:14:59.922Z,13.10
2018-09-06T21:17:35.733Z,13.80
2018-09-06T21:20:12.500Z,13.22
2018-09-06T21:22:49.241Z,11.12
2018-09-06T21:25:58.696Z,11.25
2018-09-06T21:28:34.941Z,11.40
2018-09-06T21:31:11.437Z,11.33
2018-09-06T21:33:47.702Z,11.73
2018-09-06T21:36:24.429Z,13.25
2018-09-06T21:39:00.707Z,14.95
2018-09-06T21:41:36.761Z,11.50
2018-09-06T21:44:13.265Z,11.53
2018-09-06T21:46:49.865Z,12.47
2018-09-06T21:49:25.907Z,10.63
2018-09-06T21:52:02.438Z,11.75
2018-09-06T21:55:55.227Z,12.05
2018-09-06T21:58:31.705Z,9.50
2018-09-06T22:01:07.717Z,13.80
2018-09-06T22:03:48.289Z,10.80
2018-09-06T22:06:24.541Z,10.93
2018-09-06T22:09:00.746Z,10.63
2018-09-06T22:11:36.668Z,11.73
2018-09-06T22:14:12.881Z,10.20
2018-09-06T22:16:48.925Z,9.20
2018-09-06T22:19:25.233Z,10.90
2018-09-06T22:22:01.319Z,11.70
2018-09-06T22:24:42.125Z,9.68
2018-09-06T22:27:18.436Z,11.10
2018-09-06T22:29:54.673Z,11.50
2018-09-06T22:32:30.563Z,9.50
2018-09-06T22:35:07.127Z,13.58
2018-09-06T22:37:43.117Z,12.00
2018-09-06T22:40:19.390Z,9.83
2018-09-06T22:42:55.749Z,12.47
2018-09-06T22:45:31.766Z,10.23
2018-09-06T22:48:08.186Z,8.50
2018-09-06T22:50:44.753Z,9.03
2018-09-06T22:53:20.885Z,12.18
2018-09-06T22:55:57.260Z,10.23
2018-09-06T22:58:33.397Z,11.00
2018-09-06T23:01:10.386Z,10.30
2018-09-06T23:03:47.403Z,9.13
2018-09-06T23:06:23.687Z,13.35
2018-09-06T23:08:59.615Z,9.25
2018-09-06T23:11:36.737Z,9.07
2018-09-06T23:14:14.395Z,10.33
2018-09-06T23:16:50.573Z,11.00
2018-09-06T23:19:27.029Z,8.20
2018-09-06T23:22:03.181Z,12.58
2018-09-06T23:24:39.340Z,11.47
2018-09-06T23:27:15.750Z,10.10
2018-09-06T23:29:51.742Z,10.03
2018-09-06T23:32:27.646Z,7.20
2018-09-06T23:35:03.851Z,8.20
2018-09-06T23:37:40.317Z,8.33
2018-09-06T23:40:16.536Z,9.78
2018-09-06T23:42:52.726Z,9.30
2018-09-06T23:45:28.498Z,9.90
2018-09-06T23:48:04.374Z,10.43
2018-09-06T23:50:40.045Z,9.83
2018-09-06T23:53:17.085Z,12.95
2018-09-06T23:55:58.079Z,8.90
2018-09-06T23:58:33.865Z,10.38
